Time;durP1;ratioP1;P1;durP2;ratioP2;P2;SDS_P1;SDS_P2;PMS_P1;PMS_P2;Temp;Humidity;BMP_temperature;BMP_pressure;BME280_temperature;BME280_humidity;BME280_pressure;Samples;Min_cycle;Max_cycle;Signal;HPM_P1;HPM_P2
2022/02/13 00:02:34;;;;;;;1999.90;999.90;;;;;;;2.72;66.10;101883.50;15515080;28;20058;-63
2022/02/13 00:10:07;;;;;;;;;;;;;;;2.72;66.25;101866.13;15492909;28;20460;-62
2022/02/13 00:17:40;;;;;;;1999.90;999.90;;;;;;;2.62;67.04;101866.81;15549822;28;20009;-62
2022/02/13 00:25:12;;;;;;;1999.90;999.90;;;;;;;2.35;67.30;101849.28;15494238;28;20047;-57
2022/02/13 00:32:48;;;;;;;1999.90;999.90;;;;;;;2.36;67.75;101828.91;15533167;28;20037;-57
2022/02/13 00:40:20;;;;;;;1999.90;999.90;;;;;;;2.61;67.15;101810.03;15530961;28;20084;-57
2022/02/13 00:47:55;;;;;;;1999.90;999.90;;;;;;;2.55;66.97;101806.34;15498718;28;20062;-56
2022/02/13 00:55:27;;;;;;;1999.90;999.90;;;;;;;2.24;68.16;101798.69;15482347;28;20550;-56
2022/02/13 01:03:00;;;;;;;1999.90;999.90;;;;;;;2.37;67.90;101786.50;15514864;28;20046;-58
2022/02/13 01:10:32;;;;;;;1999.90;999.90;;;;;;;2.22;68.46;101782.44;15516751;28;20066;-58
2022/02/13 01:18:05;;;;;;;1999.90;999.90;;;;;;;2.17;68.70;101765.81;15534124;28;20072;-55
2022/02/13 01:25:41;;;;;;;1999.90;999.90;;;;;;;2.10;68.45;101761.59;15496056;28;20092;-59
2022/02/13 01:33:15;;;;;;;1999.90;999.90;;;;;;;1.97;68.65;101748.97;15461099;28;20061;-61
2022/02/13 01:40:47;;;;;;;1999.90;999.90;;;;;;;1.89;69.00;101741.16;15487989;28;20129;-58
2022/02/13 01:48:20;;;;;;;1999.90;999.90;;;;;;;1.86;68.95;101725.13;15523391;28;20503;-58
2022/02/13 01:55:52;;;;;;;1999.90;999.90;;;;;;;2.04;68.25;101713.84;15504554;28;20145;-59
2022/02/13 02:03:26;;;;;;;1999.90;999.90;;;;;;;1.50;69.33;101708.03;15517899;28;20037;-56
2022/02/13 02:10:58;;;;;;;1999.90;999.90;;;;;;;1.98;68.02;101701.94;15469064;28;20046;-57
2022/02/13 02:18:48;;;;;;;1999.90;999.90;;;;;;;1.83;68.38;101689.84;15481485;28;20050;-59
2022/02/13 02:26:41;;;;;;;1999.90;999.90;;;;;;;1.68;68.86;101685.78;15515863;28;20088;-57
2022/02/13 02:34:14;;;;;;;1999.90;999.90;;;;;;;1.81;68.34;101665.31;15515039;28;20043;-61
2022/02/13 02:41:47;;;;;;;1999.90;999.90;;;;;;;1.84;68.14;101653.81;15526997;28;20041;-54
2022/02/13 02:49:20;;;;;;;1999.90;999.90;;;;;;;1.71;67.84;101644.00;15528034;28;20403;-54
2022/02/13 02:56:53;;;;;;;1999.90;999.90;;;;;;;1.79;68.35;101636.41;15505881;28;20117;-58
2022/02/13 03:04:25;;;;;;;1999.90;999.90;;;;;;;2.09;67.22;101636.84;15518585;28;20120;-54
2022/02/13 03:11:59;;;;;;;1999.90;999.90;;;;;;;2.31;66.31;101626.69;15510579;28;20128;-58
2022/02/13 03:19:31;;;;;;;1999.90;999.90;;;;;;;2.09;66.96;101614.81;15506914;28;20488;-57
2022/02/13 03:27:05;;;;;;;1999.90;999.90;;;;;;;2.25;66.30;101616.66;15497808;28;20049;-60
2022/02/13 03:34:37;;;;;;;1999.90;999.90;;;;;;;2.21;66.45;101604.50;15531748;28;20057;-59
2022/02/13 03:42:12;;;;;;;1999.90;999.90;;;;;;;2.27;66.45;101606.22;15553108;28;20046;-58
2022/02/13 03:49:44;;;;;;;1999.90;999.90;;;;;;;2.33;66.33;101595.28;15526064;28;20113;-57
2022/02/13 03:57:18;;;;;;;1999.90;999.90;;;;;;;2.14;66.58;101584.59;15504313;28;20486;-59
2022/02/13 04:04:50;;;;;;;;;;;;;;;2.22;66.64;101570.38;15510890;28;20066;-58
2022/02/13 04:12:24;;;;;;;1999.90;999.90;;;;;;;2.08;66.87;101571.81;15506493;28;20034;-60
2022/02/13 04:19:56;;;;;;;1999.90;999.90;;;;;;;2.01;67.06;101560.19;15527488;28;20070;-56
2022/02/13 04:27:29;;;;;;;1999.90;999.90;;;;;;;2.20;66.65;101549.69;15502834;28;20112;-56
2022/02/13 04:35:01;;;;;;;1999.90;999.90;;;;;;;2.14;66.32;101554.28;15527779;28;20083;-58
2022/02/13 04:42:35;;;;;;;1999.90;999.90;;;;;;;1.92;66.76;101542.44;15509168;28;20049;-57
2022/02/13 04:50:08;;;;;;;1999.90;999.90;;;;;;;1.98;66.46;101536.78;15488017;28;20138;-59
2022/02/13 04:57:42;;;;;;;1999.90;999.90;;;;;;;1.88;66.85;101516.53;15497570;28;20107;-55
2022/02/13 05:05:14;;;;;;;1999.90;999.90;;;;;;;1.94;66.63;101510.00;15532965;28;20053;-57
2022/02/13 05:12:47;;;;;;;1999.90;999.90;;;;;;;1.89;66.93;101497.00;15491265;28;20037;-57
2022/02/13 05:20:19;;;;;;;1999.90;999.90;;;;;;;1.99;66.91;101490.78;15525700;28;20077;-54
2022/02/13 05:27:53;;;;;;;1999.90;999.90;;;;;;;2.19;66.64;101482.78;15512952;28;20065;-56
2022/02/13 05:35:26;;;;;;;1999.90;999.90;;;;;;;2.05;66.55;101466.91;15547832;28;20511;-57
2022/02/13 05:42:59;;;;;;;;;;;;;;;2.11;66.90;101463.94;15551159;28;20041;-54
2022/02/13 05:50:31;;;;;;;1999.90;999.90;;;;;;;1.94;66.97;101460.44;15525495;28;19921;-55
2022/02/13 05:58:11;;;;;;;1999.90;999.90;;;;;;;1.83;67.49;101451.22;15482358;28;20053;-59
2022/02/13 06:05:43;;;;;;;1999.90;999.90;;;;;;;1.81;67.58;101442.41;15532612;28;20502;-56
2022/02/13 06:13:16;;;;;;;1999.90;999.90;;;;;;;2.05;66.30;101451.22;15511012;28;20042;-58
2022/02/13 06:20:49;;;;;;;1999.90;999.90;;;;;;;1.98;66.91;101432.16;15476485;28;20042;-60
2022/02/13 06:28:22;;;;;;;1999.90;999.90;;;;;;;1.66;68.12;101409.19;15503483;28;20091;-59
2022/02/13 06:35:54;;;;;;;1999.90;999.90;;;;;;;2.03;67.20;101420.34;15505227;28;20180;-58
2022/02/13 06:43:28;;;;;;;1999.90;999.90;;;;;;;1.67;68.51;101395.19;15517477;28;20050;-57
2022/02/13 06:51:00;;;;;;;;;;;;;;;2.02;67.54;101403.00;15486539;28;20160;-62
2022/02/13 06:58:33;;;;;;;1999.90;999.90;;;;;;;2.29;66.95;101408.53;15501726;28;19922;-57
2022/02/13 07:06:06;;;;;;;;;;;;;;;2.49;66.17;101405.09;15508618;28;20060;-58
2022/02/13 07:13:40;;;;;;;1999.90;999.90;;;;;;;2.90;65.40;101419.19;15493138;28;19940;-58
2022/02/13 07:21:12;;;;;;;1999.90;999.90;;;;;;;3.29;64.31;101416.97;15516354;28;20089;-59
2022/02/13 07:29:00;;;;;;;1999.90;999.90;;;;;;;3.45;64.25;101402.16;15499598;28;20046;-58
2022/02/13 07:36:33;;;;;;;1999.90;999.90;;;;;;;3.93;62.79;101386.31;15499899;28;20056;-58
2022/02/13 07:44:07;;;;;;;1999.90;999.90;;;;;;;4.49;61.58;101378.09;15484816;28;20061;-56
2022/02/13 07:51:39;;;;;;;;;;;;;;;5.17;59.91;101372.19;15516867;28;20057;-58
2022/02/13 07:59:12;;;;;;;1999.90;999.90;;;;;;;4.84;60.69;101359.81;15476740;28;19921;-58
2022/02/13 08:06:44;;;;;;;1999.90;999.90;;;;;;;5.66;58.23;101369.53;15497695;28;20050;-56
2022/02/13 08:14:18;;;;;;;1999.90;999.90;;;;;;;5.76;57.06;101366.69;15508316;28;20054;-56
2022/02/13 08:21:50;;;;;;;1999.90;999.90;;;;;;;5.63;58.15;101360.97;15513823;28;20412;-60
2022/02/13 08:29:23;;;;;;;1999.90;999.90;;;;;;;6.06;56.75;101362.13;15476645;28;20511;-56
2022/02/13 08:36:55;;;;;;;1999.90;999.90;;;;;;;6.38;56.12;101355.25;15532021;28;20442;-54
2022/02/13 08:44:29;;;;;;;1999.90;999.90;;;;;;;6.64;54.86;101346.41;15482968;28;20061;-63
2022/02/13 08:52:01;;;;;;;;;;;;;;;7.13;54.21;101359.25;15508391;28;20046;-54
2022/02/13 08:59:35;;;;;;;1999.90;999.90;;;;;;;8.07;51.17;101358.59;15508985;28;19930;-57
2022/02/13 09:07:07;;;;;;;1999.90;999.90;;;;;;;7.77;51.38;101335.66;15492399;28;20046;-56
2022/02/13 09:14:40;;;;;;;1999.90;999.90;;;;;;;8.82;49.51;101336.22;15521618;28;20092;-56
2022/02/13 09:22:12;;;;;;;;;;;;;;;9.20;48.97;101350.81;15540787;28;20107;-54
2022/02/13 09:29:46;;;;;;;1999.90;999.90;;;;;;;9.40;47.27;101352.38;15553730;28;19921;-57
2022/02/13 09:37:18;;;;;;;1999.90;999.90;;;;;;;10.24;46.71;101353.91;15532906;28;20058;-57
2022/02/13 09:44:52;;;;;;;1999.90;999.90;;;;;;;10.49;45.26;101371.97;15521594;28;20069;-57
2022/02/13 09:52:24;;;;;;;1999.90;999.90;;;;;;;11.20;44.81;101362.56;15546596;28;20123;-51
2022/02/13 10:00:00;;;;;;;1999.90;999.90;;;;;;;12.16;42.36;101346.06;15552692;28;20038;-56
2022/02/13 10:07:34;;;;;;;1999.90;999.90;;;;;;;12.32;41.49;101348.06;15525165;28;20129;-61
2022/02/13 10:15:29;;;;;;;1999.90;999.90;;;;;;;13.56;39.17;101341.47;15531627;28;20380;-62
2022/02/13 10:23:04;;;;;;;1999.90;999.90;;;;;;;12.60;40.26;101330.88;15526893;28;20046;-59
2022/02/13 10:30:40;;;;;;;1999.90;999.90;;;;;;;13.72;37.93;101310.84;15514924;28;20048;-66
2022/02/13 10:38:16;;;;;;;1999.90;999.90;;;;;;;13.20;38.80;101294.31;15537382;28;20132;-58
2022/02/13 10:45:49;;;;;;;1999.90;999.90;;;;;;;13.91;36.82;101287.13;15527417;28;20497;-57
2022/02/13 10:53:24;;;;;;;1999.90;999.90;;;;;;;14.61;35.63;101274.97;15529454;28;20484;-54
2022/02/13 11:00:59;;;;;;;1999.90;999.90;;;;;;;13.69;37.21;101277.06;15516651;28;20038;-57
2022/02/13 11:08:36;;;;;;;1999.90;999.90;;;;;;;13.63;36.69;101276.44;15501570;28;20105;-58
2022/02/13 11:16:33;;;;;;;1999.90;999.90;;;;;;;14.98;34.97;101264.59;15518964;28;20100;-53
2022/02/13 11:24:07;;;;;;;1999.90;999.90;;;;;;;15.39;33.92;101253.47;15538689;28;20112;-51
2022/02/13 11:31:45;;;;;;;1999.90;999.90;;;;;;;15.61;33.91;101229.69;15553589;28;20127;-61
2022/02/13 11:39:38;;;;;;;1999.90;999.90;;;;;;;15.73;32.99;101235.28;15534952;28;20058;-55
2022/02/13 11:47:15;;;;;;;1999.90;999.90;;;;;;;17.83;30.78;101223.94;15499898;28;20519;-60
2022/02/13 11:54:54;;;;;;;1999.90;999.90;;;;;;;15.83;33.41;101217.91;15561475;28;20050;-60
2022/02/13 12:10:28;;;;;;;1999.90;999.90;;;;;;;15.95;32.74;101172.03;15680365;28;20440;-58
2022/02/13 12:18:09;;;;;;;1999.90;999.90;;;;;;;16.85;30.44;101164.78;15662610;28;20044;-58
2022/02/13 12:25:45;;;;;;;1999.90;999.90;;;;;;;16.93;30.57;101167.41;15658093;28;20570;-60
2022/02/13 12:33:22;;;;;;;1999.90;999.90;;;;;;;16.92;30.65;101162.97;15645136;28;20132;-59
2022/02/13 12:40:58;;;;;;;1999.90;999.90;;;;;;;15.52;30.91;101139.78;15641413;28;20138;-59
2022/02/13 12:48:30;;;;;;;1999.90;999.90;;;;;;;16.89;29.76;101118.59;15646939;28;20128;-60
2022/02/13 12:56:07;;;;;;;1999.90;999.90;;;;;;;18.18;29.07;101111.69;15681365;22;20056;-63
2022/02/13 13:03:39;;;;;;;1999.90;999.90;;;;;;;17.69;28.21;101105.88;15659360;28;20106;-65
2022/02/13 13:11:13;;;;;;;1999.90;999.90;;;;;;;17.20;29.27;101085.88;15654080;28;20045;-65
2022/02/13 13:18:53;;;;;;;1999.90;999.90;;;;;;;15.85;30.48;101067.25;15656469;28;20440;-65
2022/02/13 13:26:28;;;;;;;1999.90;999.90;;;;;;;14.91;32.19;101048.00;15593559;28;20103;-65
2022/02/13 13:34:05;;;;;;;1999.90;999.90;;;;;;;15.08;31.56;101054.50;15621005;28;20120;-65
2022/02/13 13:41:38;;;;;;;1999.90;999.90;;;;;;;13.76;33.81;101047.38;15629021;28;20052;-63
2022/02/13 13:49:10;;;;;;;1999.90;999.90;;;;;;;13.20;34.75;101058.94;15622225;28;20563;-61
2022/02/13 13:56:44;;;;;;;1999.90;999.90;;;;;;;14.72;32.54;101050.63;15625011;28;20072;-63
2022/02/13 14:04:16;;;;;;;1999.90;999.90;;;;;;;12.51;34.90;101042.59;15749403;22;20079;-63
2022/02/13 14:11:49;;;;;;;1999.90;999.90;;;;;;;11.74;36.72;101021.34;15674775;28;20051;-64
2022/02/13 14:19:21;;;;;;;1999.90;999.90;;;;;;;11.59;37.53;101013.50;15645079;22;20509;-63
2022/02/13 14:26:54;;;;;;;1999.90;999.90;;;;;;;11.37;38.14;101011.75;15591617;28;20111;-62
2022/02/13 14:34:27;;;;;;;;;;;;;;;10.95;39.73;100987.16;15612419;28;20541;-63
2022/02/13 14:42:02;;;;;;;1999.90;999.90;;;;;;;11.35;40.03;100974.91;15620649;28;19925;-62
2022/02/13 14:49:35;;;;;;;1999.90;999.90;;;;;;;11.39;40.63;100970.31;15600206;28;20033;-61
2022/02/13 14:57:10;;;;;;;1999.90;999.90;;;;;;;11.40;41.69;100950.44;15647297;28;20090;-63
2022/02/13 15:04:42;;;;;;;1999.90;999.90;;;;;;;10.98;43.79;100950.19;15603120;28;20055;-63
2022/02/13 15:12:21;;;;;;;1999.90;999.90;;;;;;;11.14;43.98;100949.66;15624707;28;20080;-63
2022/02/13 15:19:53;;;;;;;1999.90;999.90;;;;;;;10.84;45.15;100941.16;15634884;28;20055;-63
2022/02/13 15:27:29;;;;;;;1999.90;999.90;;;;;;;10.97;45.47;100933.75;15630539;28;20048;-63
2022/02/13 15:35:02;;;;;;;1999.90;999.90;;;;;;;10.89;45.84;100923.41;15630944;28;20497;-63
2022/02/13 15:42:38;;;;;;;1999.90;999.90;;;;;;;10.95;45.99;100916.53;15652606;28;20048;-64
2022/02/13 15:50:11;;;;;;;1999.90;999.90;;;;;;;10.77;46.87;100920.47;15644934;28;20339;-63
2022/02/13 15:57:46;;;;;;;1999.90;999.90;;;;;;;10.54;47.37;100897.50;15610452;28;20041;-64
2022/02/13 16:05:18;;;;;;;1999.90;999.90;;;;;;;10.49;47.60;100884.53;15611935;28;20529;-64
2022/02/13 16:12:53;;;;;;;1999.90;999.90;;;;;;;10.28;48.29;100875.16;15605682;28;20041;-63
2022/02/13 16:20:26;;;;;;;1999.90;999.90;;;;;;;9.54;50.39;100856.47;15617324;28;20052;-63
2022/02/13 16:28:20;;;;;;;1999.90;999.90;;;;;;;9.80;50.25;100874.09;15628601;28;20050;-62
2022/02/13 16:35:52;;;;;;;1999.90;999.90;;;;;;;9.60;51.00;100862.72;15605309;28;20057;-64
2022/02/13 17:01:16;;;;;;;1999.90;999.90;;;;;;;8.75;53.93;100836.91;15603401;28;20389;-63
2022/02/13 17:08:48;;;;;;;1999.90;999.90;;;;;;;8.85;54.14;100815.19;15600678;28;20052;-63
2022/02/13 17:16:27;;;;;;;1999.90;999.90;;;;;;;8.87;54.50;100818.50;15643076;28;20224;-63
2022/02/13 17:23:59;;;;;;;1999.90;999.90;;;;;;;8.75;54.99;100798.78;15635786;28;20049;-63
2022/02/13 17:31:44;;;;;;;1999.90;999.90;;;;;;;8.67;55.15;100811.53;15634666;28;20059;-61
2022/02/13 17:57:35;;;;;;;1999.90;999.90;;;;;;;8.42;56.80;100794.66;15618119;28;20481;-63
2022/02/13 18:05:11;;;;;;;1999.90;999.90;;;;;;;8.34;56.82;100793.44;15621963;28;20045;-62
2022/02/13 18:12:54;;;;;;;1999.90;999.90;;;;;;;7.98;57.98;100776.78;15597653;28;20103;-62
2022/02/13 18:20:26;;;;;;;;;;;;;;;8.20;57.82;100784.31;15602847;28;20048;-62
2022/02/13 18:28:05;;;;;;;1999.90;999.90;;;;;;;8.33;58.63;100766.75;15614167;28;19921;-62
2022/02/13 18:35:38;;;;;;;1999.90;999.90;;;;;;;8.42;58.06;100758.50;15609790;28;20054;-62
2022/02/13 18:43:11;;;;;;;1999.90;999.90;;;;;;;8.16;59.16;100749.97;15600111;28;20115;-62
2022/02/13 18:50:49;;;;;;;;;;;;;;;8.29;59.38;100735.16;15584754;28;20046;-62
2022/02/13 18:58:23;;;;;;;1999.90;999.90;;;;;;;8.61;58.73;100739.63;15610944;28;20015;-60
2022/02/13 19:05:56;;;;;;;1999.90;999.90;;;;;;;8.59;59.00;100716.88;15574788;28;20459;-63
2022/02/13 19:13:30;;;;;;;1999.90;999.90;;;;;;;8.45;59.59;100717.00;15598031;28;20107;-61
2022/02/13 19:21:02;;;;;;;1999.90;999.90;;;;;;;8.35;59.81;100706.13;15645617;28;20741;-63
2022/02/13 19:28:36;;;;;;;1999.90;999.90;;;;;;;8.24;59.70;100700.00;15579451;28;20045;-62
2022/02/13 19:36:11;;;;;;;1999.90;999.90;;;;;;;8.14;60.03;100697.47;15604856;28;20051;-61
2022/02/13 19:43:46;;;;;;;1999.90;999.90;;;;;;;8.11;60.13;100698.09;15573680;28;20532;-62
2022/02/13 20:00:32;;;;;;;1999.90;999.90;;;;;;;8.10;60.30;100683.38;15613837;28;20052;-62
2022/02/13 20:08:19;;;;;;;1999.90;999.90;;;;;;;7.95;60.93;100681.00;15610285;28;20141;-61
2022/02/13 20:34:31;;;;;;;1999.90;999.90;;;;;;;8.31;59.66;100672.53;15616465;28;20044;-59
2022/02/13 20:42:04;;;;;;;1999.90;999.90;;;;;;;8.18;59.66;100658.75;15619150;28;20045;-59
2022/02/13 20:58:18;;;;;;;1999.90;999.90;;;;;;;7.91;60.19;100651.38;15551329;28;20057;-59
2022/02/13 21:05:55;;;;;;;1999.90;999.90;;;;;;;7.92;59.91;100647.44;15649579;28;20044;-59
2022/02/13 21:13:28;;;;;;;1999.90;999.90;;;;;;;7.49;60.96;100636.84;15625741;28;20114;-59
2022/02/13 21:21:02;;;;;;;1999.90;999.90;;;;;;;7.47;60.73;100634.38;15627338;28;20048;-58
2022/02/13 21:28:40;;;;;;;1999.90;999.90;;;;;;;7.35;61.37;100634.13;15611071;28;20041;-59
2022/02/13 21:36:32;;;;;;;1999.90;999.90;;;;;;;7.39;61.03;100629.56;15637929;28;20408;-59
2022/02/13 21:44:10;;;;;;;1999.90;999.90;;;;;;;7.32;60.80;100626.44;15601088;28;20091;-59
2022/02/13 21:51:43;;;;;;;1999.90;999.90;;;;;;;7.39;60.42;100626.81;15630931;28;20029;-60
2022/02/13 21:59:16;;;;;;;1999.90;999.90;;;;;;;7.32;60.41;100615.34;15641958;28;20057;-60
2022/02/13 22:06:49;;;;;;;1999.90;999.90;;;;;;;7.21;59.79;100605.59;15641341;28;20136;-60
2022/02/13 22:14:23;;;;;;;1999.90;999.90;;;;;;;6.92;61.06;100595.69;15640083;28;20389;-60
2022/02/13 22:21:56;;;;;;;1999.90;999.90;;;;;;;7.16;59.81;100591.84;15587130;28;20033;-60
2022/02/13 22:29:30;;;;;;;1999.90;999.90;;;;;;;6.99;60.52;100583.38;15658410;28;20122;-61
2022/02/13 22:37:03;;;;;;;1999.90;999.90;;;;;;;7.06;59.94;100587.34;15634713;28;20477;-60
2022/02/13 22:44:36;;;;;;;1999.90;999.90;;;;;;;7.10;59.51;100579.22;15673269;28;20428;-61
2022/02/13 22:52:12;;;;;;;1999.90;999.90;;;;;;;7.02;59.91;100566.09;15606245;28;20102;-58
2022/02/13 22:59:46;;;;;;;1999.90;999.90;;;;;;;7.24;59.16;100557.78;15592559;28;20046;-61
2022/02/13 23:15:10;;;;;;;1999.90;999.90;;;;;;;7.38;58.32;100541.88;15643446;28;20257;-60
2022/02/13 23:22:42;;;;;;;1999.90;999.90;;;;;;;7.13;58.70;100551.66;15653856;28;20041;-60
2022/02/13 23:30:16;;;;;;;1999.90;999.90;;;;;;;7.05;59.17;100544.09;15619390;28;20097;-60
2022/02/13 23:37:48;;;;;;;1999.90;999.90;;;;;;;7.12;58.65;100543.66;15616643;28;20372;-60
2022/02/13 23:45:22;;;;;;;1999.90;999.90;;;;;;;7.13;58.63;100526.69;15614661;28;20045;-60
2022/02/13 23:52:57;;;;;;;1999.90;999.90;;;;;;;7.27;58.00;100529.41;15655367;28;20037;-59
